sensor_id;sensor_type;location;lat;lon;timestamp;temperature;humidity
3940;DHT22;1984;48.312;9.244;2022-10-17T00:00:40;10.90;99.90
3940;DHT22;1984;48.312;9.244;2022-10-17T00:03:05;10.90;99.90
3940;DHT22;1984;48.312;9.244;2022-10-17T00:05:31;10.80;99.90
3940;DHT22;1984;48.312;9.244;2022-10-17T00:07:57;10.90;99.90
3940;DHT22;1984;48.312;9.244;2022-10-17T00:10:22;10.80;99.90
3940;DHT22;1984;48.312;9.244;2022-10-17T00:12:49;10.80;99.90
3940;DHT22;1984;48.312;9.244;2022-10-17T00:15:17;10.80;99.90
3940;DHT22;1984;48.312;9.244;2022-10-17T00:17:43;10.80;99.90
3940;DHT22;1984;48.312;9.244;2022-10-17T00:20:10;10.70;99.90
3940;DHT22;1984;48.312;9.244;2022-10-17T00:22:35;10.70;99.90
3940;DHT22;1984;48.312;9.244;2022-10-17T00:25:01;10.70;99.90
3940;DHT22;1984;48.312;9.244;2022-10-17T00:27:27;10.70;99.90
3940;DHT22;1984;48.312;9.244;2022-10-17T00:29:52;10.60;99.90
3940;DHT22;1984;48.312;9.244;2022-10-17T00:32:18;10.50;99.90
3940;DHT22;1984;48.312;9.244;2022-10-17T00:34:44;10.50;99.90
3940;DHT22;1984;48.312;9.244;2022-10-17T00:37:10;10.50;99.90
3940;DHT22;1984;48.312;9.244;2022-10-17T00:39:35;10.50;99.90
3940;DHT22;1984;48.312;9.244;2022-10-17T00:42:01;10.50;99.90
3940;DHT22;1984;48.312;9.244;2022-10-17T00:47:04;10.50;99.90
3940;DHT22;1984;48.312;9.244;2022-10-17T00:49:33;10.50;99.90
3940;DHT22;1984;48.312;9.244;2022-10-17T00:52:09;10.40;99.90
3940;DHT22;1984;48.312;9.244;2022-10-17T00:54:45;10.40;99.90
3940;DHT22;1984;48.312;9.244;2022-10-17T00:57:12;10.30;99.90
3940;DHT22;1984;48.312;9.244;2022-10-17T00:59:39;10.20;99.90
3940;DHT22;1984;48.312;9.244;2022-10-17T01:02:09;10.10;99.90
3940;DHT22;1984;48.312;9.244;2022-10-17T01:04:40;10.00;99.90
3940;DHT22;1984;48.312;9.244;2022-10-17T01:07:06;10.00;99.90
3940;DHT22;1984;48.312;9.244;2022-10-17T01:09:32;10.00;99.90
3940;DHT22;1984;48.312;9.244;2022-10-17T01:12:24;9.90;99.90
3940;DHT22;1984;48.312;9.244;2022-10-17T01:15:11;9.90;99.90
3940;DHT22;1984;48.312;9.244;2022-10-17T01:17:54;9.80;99.90
3940;DHT22;1984;48.312;9.244;2022-10-17T01:21:05;9.70;99.90
3940;DHT22;1984;48.312;9.244;2022-10-17T01:29:33;9.70;99.90
3940;DHT22;1984;48.312;9.244;2022-10-17T01:32:15;9.70;99.90
3940;DHT22;1984;48.312;9.244;2022-10-17T01:34:58;9.70;99.90
3940;DHT22;1984;48.312;9.244;2022-10-17T01:37:34;9.70;99.90
3940;DHT22;1984;48.312;9.244;2022-10-17T01:40:04;9.70;99.90
3940;DHT22;1984;48.312;9.244;2022-10-17T01:42:41;9.60;99.90
3940;DHT22;1984;48.312;9.244;2022-10-17T01:45:15;9.50;99.90
3940;DHT22;1984;48.312;9.244;2022-10-17T01:47:45;9.50;99.90
3940;DHT22;1984;48.312;9.244;2022-10-17T01:50:27;9.60;99.90
3940;DHT22;1984;48.312;9.244;2022-10-17T01:53:01;9.60;99.90
3940;DHT22;1984;48.312;9.244;2022-10-17T01:55:34;9.50;99.90
3940;DHT22;1984;48.312;9.244;2022-10-17T01:58:05;9.50;99.90
3940;DHT22;1984;48.312;9.244;2022-10-17T02:00:33;9.50;99.90
3940;DHT22;1984;48.312;9.244;2022-10-17T02:03:06;9.50;99.90
3940;DHT22;1984;48.312;9.244;2022-10-17T02:05:36;9.50;99.90
3940;DHT22;1984;48.312;9.244;2022-10-17T02:08:03;9.40;99.90
3940;DHT22;1984;48.312;9.244;2022-10-17T02:11:17;9.50;99.90
3940;DHT22;1984;48.312;9.244;2022-10-17T02:14:03;9.50;99.90
3940;DHT22;1984;48.312;9.244;2022-10-17T02:17:04;9.50;99.90
3940;DHT22;1984;48.312;9.244;2022-10-17T02:20:01;9.50;99.90
3940;DHT22;1984;48.312;9.244;2022-10-17T02:23:08;9.50;99.90
3940;DHT22;1984;48.312;9.244;2022-10-17T02:25:52;9.50;99.90
3940;DHT22;1984;48.312;9.244;2022-10-17T02:28:20;9.50;99.90
3940;DHT22;1984;48.312;9.244;2022-10-17T02:31:09;9.40;99.90
3940;DHT22;1984;48.312;9.244;2022-10-17T02:33:43;9.40;99.90
3940;DHT22;1984;48.312;9.244;2022-10-17T02:36:14;9.40;99.90
3940;DHT22;1984;48.312;9.244;2022-10-17T02:38:42;9.40;99.90
3940;DHT22;1984;48.312;9.244;2022-10-17T02:41:13;9.40;99.90
3940;DHT22;1984;48.312;9.244;2022-10-17T02:43:40;9.40;99.90
3940;DHT22;1984;48.312;9.244;2022-10-17T02:46:10;9.40;99.90
3940;DHT22;1984;48.312;9.244;2022-10-17T02:48:43;9.40;99.90
3940;DHT22;1984;48.312;9.244;2022-10-17T02:51:51;9.30;99.90
3940;DHT22;1984;48.312;9.244;2022-10-17T02:54:28;9.20;99.90
3940;DHT22;1984;48.312;9.244;2022-10-17T02:56:58;9.10;99.90
3940;DHT22;1984;48.312;9.244;2022-10-17T02:59:26;9.00;99.90
3940;DHT22;1984;48.312;9.244;2022-10-17T03:01:53;9.00;99.90
3940;DHT22;1984;48.312;9.244;2022-10-17T03:04:19;9.00;99.90
3940;DHT22;1984;48.312;9.244;2022-10-17T03:06:46;8.90;99.90
3940;DHT22;1984;48.312;9.244;2022-10-17T03:09:12;8.90;99.90
3940;DHT22;1984;48.312;9.244;2022-10-17T03:11:37;8.90;99.90
3940;DHT22;1984;48.312;9.244;2022-10-17T03:14:03;8.90;99.90
3940;DHT22;1984;48.312;9.244;2022-10-17T03:16:28;8.90;99.90
3940;DHT22;1984;48.312;9.244;2022-10-17T03:18:54;8.90;99.90
3940;DHT22;1984;48.312;9.244;2022-10-17T03:21:20;8.70;99.90
3940;DHT22;1984;48.312;9.244;2022-10-17T03:23:45;8.70;99.90
3940;DHT22;1984;48.312;9.244;2022-10-17T03:26:11;8.70;99.90
3940;DHT22;1984;48.312;9.244;2022-10-17T03:28:37;8.60;99.90
3940;DHT22;1984;48.312;9.244;2022-10-17T03:31:11;8.60;99.90
3940;DHT22;1984;48.312;9.244;2022-10-17T03:33:37;8.70;99.90
3940;DHT22;1984;48.312;9.244;2022-10-17T03:36:07;8.70;99.90
3940;DHT22;1984;48.312;9.244;2022-10-17T03:38:33;8.70;99.90
3940;DHT22;1984;48.312;9.244;2022-10-17T03:41:00;8.80;99.90
3940;DHT22;1984;48.312;9.244;2022-10-17T03:43:25;8.80;99.90
3940;DHT22;1984;48.312;9.244;2022-10-17T03:45:51;8.80;99.90
3940;DHT22;1984;48.312;9.244;2022-10-17T03:48:16;8.70;99.90
3940;DHT22;1984;48.312;9.244;2022-10-17T03:50:42;8.60;99.90
3940;DHT22;1984;48.312;9.244;2022-10-17T03:53:07;8.60;99.90
3940;DHT22;1984;48.312;9.244;2022-10-17T03:55:33;8.60;99.90
3940;DHT22;1984;48.312;9.244;2022-10-17T03:57:58;8.60;99.90
3940;DHT22;1984;48.312;9.244;2022-10-17T04:00:24;8.70;99.90
3940;DHT22;1984;48.312;9.244;2022-10-17T04:02:49;8.70;99.90
3940;DHT22;1984;48.312;9.244;2022-10-17T04:05:15;8.60;99.90
3940;DHT22;1984;48.312;9.244;2022-10-17T04:07:40;8.50;99.90
3940;DHT22;1984;48.312;9.244;2022-10-17T04:10:06;8.50;99.90
3940;DHT22;1984;48.312;9.244;2022-10-17T04:12:32;8.40;99.90
3940;DHT22;1984;48.312;9.244;2022-10-17T04:14:57;8.40;99.90
3940;DHT22;1984;48.312;9.244;2022-10-17T04:17:23;8.40;99.90
3940;DHT22;1984;48.312;9.244;2022-10-17T04:19:49;8.40;99.90
3940;DHT22;1984;48.312;9.244;2022-10-17T04:22:14;8.40;99.90
3940;DHT22;1984;48.312;9.244;2022-10-17T04:24:40;8.30;99.90
3940;DHT22;1984;48.312;9.244;2022-10-17T04:27:05;8.30;99.90
3940;DHT22;1984;48.312;9.244;2022-10-17T04:29:31;8.30;99.90
3940;DHT22;1984;48.312;9.244;2022-10-17T04:31:56;8.30;99.90
3940;DHT22;1984;48.312;9.244;2022-10-17T04:34:22;8.30;99.90
3940;DHT22;1984;48.312;9.244;2022-10-17T04:36:47;8.30;99.90
3940;DHT22;1984;48.312;9.244;2022-10-17T04:39:13;8.40;99.90
3940;DHT22;1984;48.312;9.244;2022-10-17T04:41:38;8.40;99.90
3940;DHT22;1984;48.312;9.244;2022-10-17T04:44:04;8.40;99.90
3940;DHT22;1984;48.312;9.244;2022-10-17T04:46:32;8.40;99.90
3940;DHT22;1984;48.312;9.244;2022-10-17T04:48:57;8.40;99.90
3940;DHT22;1984;48.312;9.244;2022-10-17T04:51:23;8.40;99.90
3940;DHT22;1984;48.312;9.244;2022-10-17T04:53:48;8.30;99.90
3940;DHT22;1984;48.312;9.244;2022-10-17T04:56:17;8.30;99.90
3940;DHT22;1984;48.312;9.244;2022-10-17T04:58:43;8.20;99.90
3940;DHT22;1984;48.312;9.244;2022-10-17T05:01:12;8.20;99.90
3940;DHT22;1984;48.312;9.244;2022-10-17T05:03:38;8.20;99.90
3940;DHT22;1984;48.312;9.244;2022-10-17T05:06:11;8.20;99.90
3940;DHT22;1984;48.312;9.244;2022-10-17T05:08:38;8.20;99.90
3940;DHT22;1984;48.312;9.244;2022-10-17T05:11:04;8.20;99.90
3940;DHT22;1984;48.312;9.244;2022-10-17T05:13:30;8.20;99.90
3940;DHT22;1984;48.312;9.244;2022-10-17T05:16:00;8.20;99.90
3940;DHT22;1984;48.312;9.244;2022-10-17T05:18:26;8.20;99.90
3940;DHT22;1984;48.312;9.244;2022-10-17T05:20:52;8.20;99.90
3940;DHT22;1984;48.312;9.244;2022-10-17T05:23:17;8.10;99.90
3940;DHT22;1984;48.312;9.244;2022-10-17T05:25:43;8.10;99.90
3940;DHT22;1984;48.312;9.244;2022-10-17T05:28:08;8.10;99.90
3940;DHT22;1984;48.312;9.244;2022-10-17T05:30:34;8.10;99.90
3940;DHT22;1984;48.312;9.244;2022-10-17T05:33:01;8.10;99.90
3940;DHT22;1984;48.312;9.244;2022-10-17T05:35:26;8.00;99.90
3940;DHT22;1984;48.312;9.244;2022-10-17T05:37:52;8.00;99.90
3940;DHT22;1984;48.312;9.244;2022-10-17T05:40:17;8.00;99.90
3940;DHT22;1984;48.312;9.244;2022-10-17T05:42:47;8.00;99.90
3940;DHT22;1984;48.312;9.244;2022-10-17T05:45:13;8.00;99.90
3940;DHT22;1984;48.312;9.244;2022-10-17T05:47:39;7.90;99.90
3940;DHT22;1984;48.312;9.244;2022-10-17T05:50:05;8.00;99.90
3940;DHT22;1984;48.312;9.244;2022-10-17T05:52:30;7.90;99.90
3940;DHT22;1984;48.312;9.244;2022-10-17T05:54:56;7.90;99.90
3940;DHT22;1984;48.312;9.244;2022-10-17T05:57:24;7.80;99.90
3940;DHT22;1984;48.312;9.244;2022-10-17T05:59:49;7.80;99.90
3940;DHT22;1984;48.312;9.244;2022-10-17T06:02:15;7.90;99.90
3940;DHT22;1984;48.312;9.244;2022-10-17T06:04:40;7.90;99.90
3940;DHT22;1984;48.312;9.244;2022-10-17T06:07:10;8.00;99.90
3940;DHT22;1984;48.312;9.244;2022-10-17T06:09:36;8.10;99.90
3940;DHT22;1984;48.312;9.244;2022-10-17T06:12:01;8.10;99.90
3940;DHT22;1984;48.312;9.244;2022-10-17T06:14:27;8.20;99.90
3940;DHT22;1984;48.312;9.244;2022-10-17T06:16:52;8.30;99.90
3940;DHT22;1984;48.312;9.244;2022-10-17T06:19:18;8.40;99.90
3940;DHT22;1984;48.312;9.244;2022-10-17T06:21:43;8.40;99.90
3940;DHT22;1984;48.312;9.244;2022-10-17T06:24:09;8.10;99.90
3940;DHT22;1984;48.312;9.244;2022-10-17T06:26:34;8.00;99.90
3940;DHT22;1984;48.312;9.244;2022-10-17T06:29:00;8.00;99.90
3940;DHT22;1984;48.312;9.244;2022-10-17T06:31:25;8.20;99.90
3940;DHT22;1984;48.312;9.244;2022-10-17T06:33:51;8.30;99.90
3940;DHT22;1984;48.312;9.244;2022-10-17T06:36:16;8.40;99.90
3940;DHT22;1984;48.312;9.244;2022-10-17T06:38:42;8.60;99.90
3940;DHT22;1984;48.312;9.244;2022-10-17T06:41:10;8.80;99.90
3940;DHT22;1984;48.312;9.244;2022-10-17T06:43:38;9.00;99.90
3940;DHT22;1984;48.312;9.244;2022-10-17T06:46:04;9.30;99.90
3940;DHT22;1984;48.312;9.244;2022-10-17T06:48:31;9.50;99.90
3940;DHT22;1984;48.312;9.244;2022-10-17T06:51:04;9.60;99.90
3940;DHT22;1984;48.312;9.244;2022-10-17T06:53:31;9.90;99.90
3940;DHT22;1984;48.312;9.244;2022-10-17T06:55:57;10.20;99.90
3940;DHT22;1984;48.312;9.244;2022-10-17T06:58:31;10.60;99.90
3940;DHT22;1984;48.312;9.244;2022-10-17T07:00:59;11.20;99.90
3940;DHT22;1984;48.312;9.244;2022-10-17T07:03:24;11.50;99.90
3940;DHT22;1984;48.312;9.244;2022-10-17T07:05:51;12.00;99.90
3940;DHT22;1984;48.312;9.244;2022-10-17T07:08:17;12.80;99.90
3940;DHT22;1984;48.312;9.244;2022-10-17T07:10:42;13.50;99.90
3940;DHT22;1984;48.312;9.244;2022-10-17T07:13:08;14.30;99.90
3940;DHT22;1984;48.312;9.244;2022-10-17T07:15:33;15.30;99.90
3940;DHT22;1984;48.312;9.244;2022-10-17T07:17:59;16.10;99.90
3940;DHT22;1984;48.312;9.244;2022-10-17T07:20:24;16.90;99.90
3940;DHT22;1984;48.312;9.244;2022-10-17T07:22:50;17.90;99.90
3940;DHT22;1984;48.312;9.244;2022-10-17T07:25:16;18.80;99.90
3940;DHT22;1984;48.312;9.244;2022-10-17T07:27:41;19.40;99.90
3940;DHT22;1984;48.312;9.244;2022-10-17T07:30:07;20.10;99.90
3940;DHT22;1984;48.312;9.244;2022-10-17T07:32:33;20.90;99.90
3940;DHT22;1984;48.312;9.244;2022-10-17T07:34:59;21.60;99.90
3940;DHT22;1984;48.312;9.244;2022-10-17T07:37:24;21.90;99.90
3940;DHT22;1984;48.312;9.244;2022-10-17T07:39:50;22.10;99.90
3940;DHT22;1984;48.312;9.244;2022-10-17T07:42:15;22.10;99.90
3940;DHT22;1984;48.312;9.244;2022-10-17T07:44:41;22.30;99.90
3940;DHT22;1984;48.312;9.244;2022-10-17T07:47:06;22.70;99.90
3940;DHT22;1984;48.312;9.244;2022-10-17T07:49:32;23.20;99.90
3940;DHT22;1984;48.312;9.244;2022-10-17T07:51:57;23.40;99.90
3940;DHT22;1984;48.312;9.244;2022-10-17T07:54:23;23.80;99.90
3940;DHT22;1984;48.312;9.244;2022-10-17T07:56:48;24.40;99.90
3940;DHT22;1984;48.312;9.244;2022-10-17T07:59:18;24.80;99.90
3940;DHT22;1984;48.312;9.244;2022-10-17T08:01:44;25.30;99.90
3940;DHT22;1984;48.312;9.244;2022-10-17T08:04:09;25.50;99.90
3940;DHT22;1984;48.312;9.244;2022-10-17T08:06:35;25.50;99.90
3940;DHT22;1984;48.312;9.244;2022-10-17T08:09:00;25.80;99.90
3940;DHT22;1984;48.312;9.244;2022-10-17T08:11:26;25.90;99.90
3940;DHT22;1984;48.312;9.244;2022-10-17T08:13:52;26.30;99.90
3940;DHT22;1984;48.312;9.244;2022-10-17T08:16:18;26.10;99.90
3940;DHT22;1984;48.312;9.244;2022-10-17T08:18:43;25.80;99.90
3940;DHT22;1984;48.312;9.244;2022-10-17T08:21:10;25.50;99.90
3940;DHT22;1984;48.312;9.244;2022-10-17T08:23:37;25.60;99.90
3940;DHT22;1984;48.312;9.244;2022-10-17T08:26:04;25.90;99.90
3940;DHT22;1984;48.312;9.244;2022-10-17T08:28:34;26.40;99.90
3940;DHT22;1984;48.312;9.244;2022-10-17T08:31:04;26.60;99.90
3940;DHT22;1984;48.312;9.244;2022-10-17T08:33:30;27.00;99.00
3940;DHT22;1984;48.312;9.244;2022-10-17T08:35:58;27.10;98.70
3940;DHT22;1984;48.312;9.244;2022-10-17T08:38:24;26.90;99.20
3940;DHT22;1984;48.312;9.244;2022-10-17T08:40:49;26.60;99.40
3940;DHT22;1984;48.312;9.244;2022-10-17T08:46:17;26.40;99.90
3940;DHT22;1984;48.312;9.244;2022-10-17T08:48:45;26.40;99.90
3940;DHT22;1984;48.312;9.244;2022-10-17T08:51:19;26.50;99.40
3940;DHT22;1984;48.312;9.244;2022-10-17T08:56:39;26.60;99.50
3940;DHT22;1984;48.312;9.244;2022-10-17T08:59:12;26.50;99.40
3940;DHT22;1984;48.312;9.244;2022-10-17T09:07:41;27.10;98.30
3940;DHT22;1984;48.312;9.244;2022-10-17T09:10:20;27.20;98.30
3940;DHT22;1984;48.312;9.244;2022-10-17T09:16:08;28.70;97.40
3940;DHT22;1984;48.312;9.244;2022-10-17T09:18:59;29.40;96.10
3940;DHT22;1984;48.312;9.244;2022-10-17T09:21:53;29.80;95.20
3940;DHT22;1984;48.312;9.244;2022-10-17T09:24:32;29.00;95.90
3940;DHT22;1984;48.312;9.244;2022-10-17T09:27:01;28.60;96.20
3940;DHT22;1984;48.312;9.244;2022-10-17T09:29:28;29.00;95.80
3940;DHT22;1984;48.312;9.244;2022-10-17T09:31:57;29.50;94.60
3940;DHT22;1984;48.312;9.244;2022-10-17T09:34:26;29.80;94.70
3940;DHT22;1984;48.312;9.244;2022-10-17T09:36:52;29.90;93.70
3940;DHT22;1984;48.312;9.244;2022-10-17T09:39:22;29.90;93.90
3940;DHT22;1984;48.312;9.244;2022-10-17T09:41:53;30.00;94.50
3940;DHT22;1984;48.312;9.244;2022-10-17T09:44:34;30.00;92.60
3940;DHT22;1984;48.312;9.244;2022-10-17T09:47:23;30.00;93.30
3940;DHT22;1984;48.312;9.244;2022-10-17T09:49:50;30.30;93.30
3940;DHT22;1984;48.312;9.244;2022-10-17T09:52:20;29.90;92.00
3940;DHT22;1984;48.312;9.244;2022-10-17T09:54:53;29.50;92.50
3940;DHT22;1984;48.312;9.244;2022-10-17T09:57:21;29.10;93.20
3940;DHT22;1984;48.312;9.244;2022-10-17T09:59:58;28.70;93.60
3940;DHT22;1984;48.312;9.244;2022-10-17T10:02:25;28.40;94.70
3940;DHT22;1984;48.312;9.244;2022-10-17T10:05:02;28.30;93.70
3940;DHT22;1984;48.312;9.244;2022-10-17T10:07:31;28.30;94.70
3940;DHT22;1984;48.312;9.244;2022-10-17T10:09:58;28.40;93.70
3940;DHT22;1984;48.312;9.244;2022-10-17T10:12:29;29.00;93.50
3940;DHT22;1984;48.312;9.244;2022-10-17T10:14:55;29.60;93.20
3940;DHT22;1984;48.312;9.244;2022-10-17T10:17:40;30.30;92.00
3940;DHT22;1984;48.312;9.244;2022-10-17T10:20:33;31.00;91.60
3940;DHT22;1984;48.312;9.244;2022-10-17T10:25:34;32.90;86.30
3940;DHT22;1984;48.312;9.244;2022-10-17T10:28:00;33.20;88.20
3940;DHT22;1984;48.312;9.244;2022-10-17T10:30:29;33.20;86.80
3940;DHT22;1984;48.312;9.244;2022-10-17T10:32:56;33.50;85.40
3940;DHT22;1984;48.312;9.244;2022-10-17T10:35:33;33.40;82.60
3940;DHT22;1984;48.312;9.244;2022-10-17T10:38:01;33.30;84.40
3940;DHT22;1984;48.312;9.244;2022-10-17T10:40:34;33.30;85.00
3940;DHT22;1984;48.312;9.244;2022-10-17T10:43:02;32.90;80.60
3940;DHT22;1984;48.312;9.244;2022-10-17T10:45:41;32.00;81.40
3940;DHT22;1984;48.312;9.244;2022-10-17T10:48:22;31.60;83.30
3940;DHT22;1984;48.312;9.244;2022-10-17T10:51:11;30.80;85.40
3940;DHT22;1984;48.312;9.244;2022-10-17T10:56:51;30.20;86.30
3940;DHT22;1984;48.312;9.244;2022-10-17T10:59:59;30.00;86.20
3940;DHT22;1984;48.312;9.244;2022-10-17T11:02:20;29.90;85.80
3940;DHT22;1984;48.312;9.244;2022-10-17T11:07:49;29.20;88.10
3940;DHT22;1984;48.312;9.244;2022-10-17T11:10:29;29.00;88.40
3940;DHT22;1984;48.312;9.244;2022-10-17T11:13:47;29.00;90.60
3940;DHT22;1984;48.312;9.244;2022-10-17T11:24:28;28.00;91.80
3940;DHT22;1984;48.312;9.244;2022-10-17T11:26:59;27.90;92.40
3940;DHT22;1984;48.312;9.244;2022-10-17T11:29:30;27.60;93.40
3940;DHT22;1984;48.312;9.244;2022-10-17T11:32:00;27.40;91.80
3940;DHT22;1984;48.312;9.244;2022-10-17T11:34:30;27.20;92.20
3940;DHT22;1984;48.312;9.244;2022-10-17T11:37:04;27.00;92.10
3940;DHT22;1984;48.312;9.244;2022-10-17T11:39:43;26.80;92.20
3940;DHT22;1984;48.312;9.244;2022-10-17T11:42:16;26.60;92.90
3940;DHT22;1984;48.312;9.244;2022-10-17T11:44:43;26.40;93.50
3940;DHT22;1984;48.312;9.244;2022-10-17T11:47:36;26.30;93.30
3940;DHT22;1984;48.312;9.244;2022-10-17T11:50:04;26.30;94.20
3940;DHT22;1984;48.312;9.244;2022-10-17T11:52:38;26.30;93.90
3940;DHT22;1984;48.312;9.244;2022-10-17T11:55:19;26.30;94.50
3940;DHT22;1984;48.312;9.244;2022-10-17T11:57:50;26.20;94.50
3940;DHT22;1984;48.312;9.244;2022-10-17T12:00:36;26.10;94.80
3940;DHT22;1984;48.312;9.244;2022-10-17T12:05:56;25.90;95.00
3940;DHT22;1984;48.312;9.244;2022-10-17T12:13:47;25.40;94.10
3940;DHT22;1984;48.312;9.244;2022-10-17T12:18:45;25.10;93.80
3940;DHT22;1984;48.312;9.244;2022-10-17T12:21:11;25.20;94.10
3940;DHT22;1984;48.312;9.244;2022-10-17T12:23:37;25.20;94.20
3940;DHT22;1984;48.312;9.244;2022-10-17T12:26:07;25.00;94.20
3940;DHT22;1984;48.312;9.244;2022-10-17T12:33:50;24.90;94.50
3940;DHT22;1984;48.312;9.244;2022-10-17T12:39:39;25.00;94.30
3940;DHT22;1984;48.312;9.244;2022-10-17T12:41:56;25.00;94.70
3940;DHT22;1984;48.312;9.244;2022-10-17T12:49:48;24.70;91.70
3940;DHT22;1984;48.312;9.244;2022-10-17T13:02:39;24.70;92.10
3940;DHT22;1984;48.312;9.244;2022-10-17T13:05:10;24.50;91.90
3940;DHT22;1984;48.312;9.244;2022-10-17T13:07:40;24.40;91.50
3940;DHT22;1984;48.312;9.244;2022-10-17T13:10:22;24.40;92.40
3940;DHT22;1984;48.312;9.244;2022-10-17T13:12:49;24.40;92.80
3940;DHT22;1984;48.312;9.244;2022-10-17T13:15:18;24.40;93.30
3940;DHT22;1984;48.312;9.244;2022-10-17T13:17:44;24.30;94.30
3940;DHT22;1984;48.312;9.244;2022-10-17T13:20:21;24.20;93.60
3940;DHT22;1984;48.312;9.244;2022-10-17T13:22:49;24.30;94.60
3940;DHT22;1984;48.312;9.244;2022-10-17T13:25:17;24.30;94.60
3940;DHT22;1984;48.312;9.244;2022-10-17T13:27:44;24.40;95.30
3940;DHT22;1984;48.312;9.244;2022-10-17T13:30:32;24.30;95.40
3940;DHT22;1984;48.312;9.244;2022-10-17T13:32:59;24.30;95.60
3940;DHT22;1984;48.312;9.244;2022-10-17T13:35:35;24.20;95.60
3940;DHT22;1984;48.312;9.244;2022-10-17T13:38:04;24.20;95.20
3940;DHT22;1984;48.312;9.244;2022-10-17T13:40:39;24.00;95.20
3940;DHT22;1984;48.312;9.244;2022-10-17T13:43:13;24.00;95.50
3940;DHT22;1984;48.312;9.244;2022-10-17T13:45:47;24.00;95.40
3940;DHT22;1984;48.312;9.244;2022-10-17T13:48:22;23.90;95.60
3940;DHT22;1984;48.312;9.244;2022-10-17T13:50:51;23.80;95.70
3940;DHT22;1984;48.312;9.244;2022-10-17T13:53:23;23.70;95.30
3940;DHT22;1984;48.312;9.244;2022-10-17T13:56:04;23.70;94.60
3940;DHT22;1984;48.312;9.244;2022-10-17T13:58:56;23.50;94.40
3940;DHT22;1984;48.312;9.244;2022-10-17T14:01:25;23.40;95.30
3940;DHT22;1984;48.312;9.244;2022-10-17T14:03:51;23.50;95.10
3940;DHT22;1984;48.312;9.244;2022-10-17T14:06:22;23.50;94.60
3940;DHT22;1984;48.312;9.244;2022-10-17T14:08:59;23.50;93.40
3940;DHT22;1984;48.312;9.244;2022-10-17T14:13:55;23.40;93.40
3940;DHT22;1984;48.312;9.244;2022-10-17T14:16:23;23.40;93.00
3940;DHT22;1984;48.312;9.244;2022-10-17T14:18:50;23.40;93.50
3940;DHT22;1984;48.312;9.244;2022-10-17T14:21:24;23.60;93.80
3940;DHT22;1984;48.312;9.244;2022-10-17T14:23:52;23.50;93.40
3940;DHT22;1984;48.312;9.244;2022-10-17T14:26:18;23.50;92.40
3940;DHT22;1984;48.312;9.244;2022-10-17T14:29:03;23.40;92.60
3940;DHT22;1984;48.312;9.244;2022-10-17T14:31:34;23.40;93.10
3940;DHT22;1984;48.312;9.244;2022-10-17T14:34:01;23.30;93.10
3940;DHT22;1984;48.312;9.244;2022-10-17T14:36:37;23.30;92.30
3940;DHT22;1984;48.312;9.244;2022-10-17T14:39:06;23.20;92.00
3940;DHT22;1984;48.312;9.244;2022-10-17T14:41:34;23.20;91.90
3940;DHT22;1984;48.312;9.244;2022-10-17T14:44:03;23.10;92.40
3940;DHT22;1984;48.312;9.244;2022-10-17T14:46:31;23.20;93.30
3940;DHT22;1984;48.312;9.244;2022-10-17T14:49:16;23.10;93.00
3940;DHT22;1984;48.312;9.244;2022-10-17T14:52:19;23.10;93.00
3940;DHT22;1984;48.312;9.244;2022-10-17T14:54:48;23.00;93.20
3940;DHT22;1984;48.312;9.244;2022-10-17T14:57:22;22.90;93.20
3940;DHT22;1984;48.312;9.244;2022-10-17T14:59:47;22.80;93.60
3940;DHT22;1984;48.312;9.244;2022-10-17T15:02:13;22.80;94.10
3940;DHT22;1984;48.312;9.244;2022-10-17T15:04:39;22.80;93.80
3940;DHT22;1984;48.312;9.244;2022-10-17T15:07:05;22.70;93.70
3940;DHT22;1984;48.312;9.244;2022-10-17T15:09:31;22.70;94.10
3940;DHT22;1984;48.312;9.244;2022-10-17T15:12:00;22.60;93.20
3940;DHT22;1984;48.312;9.244;2022-10-17T15:14:27;22.60;94.30
3940;DHT22;1984;48.312;9.244;2022-10-17T15:16:53;22.50;94.20
3940;DHT22;1984;48.312;9.244;2022-10-17T15:19:18;22.50;94.80
3940;DHT22;1984;48.312;9.244;2022-10-17T15:21:44;22.50;94.40
3940;DHT22;1984;48.312;9.244;2022-10-17T15:24:09;22.40;94.50
3940;DHT22;1984;48.312;9.244;2022-10-17T15:26:35;22.40;95.00
3940;DHT22;1984;48.312;9.244;2022-10-17T15:29:01;22.40;95.50
3940;DHT22;1984;48.312;9.244;2022-10-17T15:31:28;22.40;95.70
3940;DHT22;1984;48.312;9.244;2022-10-17T15:33:54;22.40;95.50
3940;DHT22;1984;48.312;9.244;2022-10-17T15:36:27;22.30;95.80
3940;DHT22;1984;48.312;9.244;2022-10-17T15:38:56;22.20;96.10
3940;DHT22;1984;48.312;9.244;2022-10-17T15:41:24;22.20;96.10
3940;DHT22;1984;48.312;9.244;2022-10-17T15:43:50;22.20;96.20
3940;DHT22;1984;48.312;9.244;2022-10-17T15:46:22;22.20;96.80
3940;DHT22;1984;48.312;9.244;2022-10-17T15:48:49;22.10;97.20
3940;DHT22;1984;48.312;9.244;2022-10-17T15:51:15;22.10;96.80
3940;DHT22;1984;48.312;9.244;2022-10-17T15:53:41;21.90;97.20
3940;DHT22;1984;48.312;9.244;2022-10-17T15:58:51;21.70;98.40
3940;DHT22;1984;48.312;9.244;2022-10-17T16:01:23;21.60;98.50
3940;DHT22;1984;48.312;9.244;2022-10-17T16:03:50;21.40;98.90
3940;DHT22;1984;48.312;9.244;2022-10-17T16:06:17;21.30;99.10
3940;DHT22;1984;48.312;9.244;2022-10-17T16:08:43;21.10;99.00
3940;DHT22;1984;48.312;9.244;2022-10-17T16:14:20;20.80;99.90
3940;DHT22;1984;48.312;9.244;2022-10-17T16:16:45;20.60;99.90
3940;DHT22;1984;48.312;9.244;2022-10-17T16:19:11;20.50;99.90
3940;DHT22;1984;48.312;9.244;2022-10-17T16:21:38;20.40;99.90
3940;DHT22;1984;48.312;9.244;2022-10-17T16:24:04;20.20;99.90
3940;DHT22;1984;48.312;9.244;2022-10-17T16:26:30;20.10;99.90
3940;DHT22;1984;48.312;9.244;2022-10-17T16:28:56;19.90;99.90
3940;DHT22;1984;48.312;9.244;2022-10-17T16:31:26;19.70;99.90
3940;DHT22;1984;48.312;9.244;2022-10-17T16:33:54;19.60;99.90
3940;DHT22;1984;48.312;9.244;2022-10-17T16:36:20;19.40;99.90
3940;DHT22;1984;48.312;9.244;2022-10-17T16:38:46;19.30;99.90
3940;DHT22;1984;48.312;9.244;2022-10-17T16:41:23;19.10;99.90
3940;DHT22;1984;48.312;9.244;2022-10-17T16:43:49;19.00;99.90
3940;DHT22;1984;48.312;9.244;2022-10-17T16:46:16;18.80;99.90
3940;DHT22;1984;48.312;9.244;2022-10-17T16:48:43;18.60;99.90
3940;DHT22;1984;48.312;9.244;2022-10-17T16:51:09;18.50;99.90
3940;DHT22;1984;48.312;9.244;2022-10-17T16:53:35;18.40;99.90
3940;DHT22;1984;48.312;9.244;2022-10-17T16:56:05;18.20;99.90
3940;DHT22;1984;48.312;9.244;2022-10-17T16:58:30;18.10;99.90
3940;DHT22;1984;48.312;9.244;2022-10-17T17:01:07;17.90;99.90
3940;DHT22;1984;48.312;9.244;2022-10-17T17:03:37;17.80;99.90
3940;DHT22;1984;48.312;9.244;2022-10-17T17:06:04;17.60;99.90
3940;DHT22;1984;48.312;9.244;2022-10-17T17:08:31;17.50;99.90
3940;DHT22;1984;48.312;9.244;2022-10-17T17:10:57;17.40;99.90
3940;DHT22;1984;48.312;9.244;2022-10-17T17:13:23;17.30;99.90
3940;DHT22;1984;48.312;9.244;2022-10-17T17:15:49;17.20;99.90
3940;DHT22;1984;48.312;9.244;2022-10-17T17:18:20;17.20;99.90
3940;DHT22;1984;48.312;9.244;2022-10-17T17:20:46;17.00;99.90
3940;DHT22;1984;48.312;9.244;2022-10-17T17:23:13;17.00;99.90
3940;DHT22;1984;48.312;9.244;2022-10-17T17:25:38;16.90;99.90
3940;DHT22;1984;48.312;9.244;2022-10-17T17:28:05;16.80;99.90
3940;DHT22;1984;48.312;9.244;2022-10-17T17:30:32;16.60;99.90
3940;DHT22;1984;48.312;9.244;2022-10-17T17:32:58;16.50;99.90
3940;DHT22;1984;48.312;9.244;2022-10-17T17:35:25;16.40;99.90
3940;DHT22;1984;48.312;9.244;2022-10-17T17:37:50;16.30;99.90
3940;DHT22;1984;48.312;9.244;2022-10-17T17:40:16;16.30;99.90
3940;DHT22;1984;48.312;9.244;2022-10-17T17:42:41;16.20;99.90
3940;DHT22;1984;48.312;9.244;2022-10-17T17:45:07;16.10;99.90
3940;DHT22;1984;48.312;9.244;2022-10-17T17:47:33;16.00;99.90